createdAt,value
2018-07-20T00:01:09.197Z,77.60
2018-07-20T00:03:37.475Z,78.10
2018-07-20T00:06:05.801Z,77.90
2018-07-20T00:08:34.067Z,76.50
2018-07-20T00:11:02.328Z,77.00
2018-07-20T00:13:30.608Z,76.90
2018-07-20T00:15:58.860Z,77.20
2018-07-20T00:18:27.100Z,77.50
2018-07-20T00:20:55.369Z,77.50
2018-07-20T00:23:23.645Z,78.00
2018-07-20T00:25:51.892Z,78.00
2018-07-20T00:28:20.168Z,77.80
2018-07-20T00:30:48.423Z,78.00
2018-07-20T00:33:16.679Z,77.60
2018-07-20T00:35:44.948Z,78.20
2018-07-20T00:38:13.234Z,78.10
2018-07-20T00:40:41.509Z,77.20
2018-07-20T00:43:09.768Z,77.60
2018-07-20T00:45:38.029Z,77.70
2018-07-20T00:48:06.292Z,78.10
2018-07-20T00:50:34.566Z,78.60
2018-07-20T00:53:02.813Z,78.30
2018-07-20T00:55:31.060Z,78.90
2018-07-20T00:57:59.318Z,79.10
2018-07-20T01:00:27.590Z,79.10
2018-07-20T01:02:55.872Z,78.80
2018-07-20T01:05:24.136Z,79.00
2018-07-20T01:07:52.390Z,78.90
2018-07-20T01:10:20.644Z,78.70
2018-07-20T01:12:48.916Z,79.40
2018-07-20T01:15:17.197Z,79.90
2018-07-20T01:17:45.448Z,79.10
2018-07-20T01:20:13.729Z,78.80
2018-07-20T01:22:41.999Z,78.90
2018-07-20T01:25:10.265Z,77.80
2018-07-20T01:28:41.468Z,78.10
2018-07-20T01:31:09.716Z,78.30
2018-07-20T01:33:37.981Z,79.40
2018-07-20T01:36:06.237Z,79.20
2018-07-20T01:38:34.498Z,79.80
2018-07-20T01:41:02.763Z,79.70
2018-07-20T01:43:31.011Z,78.90
2018-07-20T01:45:59.268Z,79.80
2018-07-20T01:48:27.518Z,79.10
2018-07-20T01:50:55.775Z,79.40
2018-07-20T01:53:24.045Z,79.40
2018-07-20T01:55:52.304Z,79.70
2018-07-20T01:58:20.560Z,79.90
2018-07-20T02:00:48.805Z,80.60
2018-07-20T02:03:17.056Z,80.50
2018-07-20T02:05:48.433Z,80.50
2018-07-20T02:08:16.693Z,80.50
2018-07-20T02:10:45.352Z,80.70
2018-07-20T02:13:13.597Z,80.70
2018-07-20T02:15:41.854Z,81.00
2018-07-20T02:18:10.101Z,81.10
2018-07-20T02:20:38.368Z,81.20
2018-07-20T02:23:06.632Z,81.20
2018-07-20T02:25:34.888Z,82.80
2018-07-20T02:28:03.149Z,82.70
2018-07-20T02:30:31.417Z,82.60
2018-07-20T02:32:59.675Z,82.40
2018-07-20T02:35:27.953Z,82.80
2018-07-20T02:37:56.213Z,82.00
2018-07-20T02:40:24.462Z,81.80
2018-07-20T02:42:52.719Z,82.10
2018-07-20T02:45:20.969Z,81.90
2018-07-20T02:47:49.261Z,82.10
2018-07-20T02:50:17.534Z,82.10
2018-07-20T02:52:45.828Z,82.40
2018-07-20T02:55:14.118Z,82.90
2018-07-20T02:57:42.389Z,83.00
2018-07-20T03:00:10.672Z,82.50
2018-07-20T03:02:38.965Z,82.50
2018-07-20T03:05:07.272Z,83.10
2018-07-20T03:07:35.669Z,83.20
2018-07-20T03:10:04.304Z,83.30
2018-07-20T03:12:32.623Z,83.30
2018-07-20T03:15:00.890Z,83.40
2018-07-20T03:17:29.244Z,83.70
2018-07-20T03:19:57.714Z,84.30
2018-07-20T03:22:26.032Z,84.50
2018-07-20T03:25:01.110Z,84.70
2018-07-20T03:27:29.422Z,84.60
2018-07-20T03:29:57.725Z,85.00
2018-07-20T03:32:26.084Z,84.90
2018-07-20T03:34:54.401Z,84.90
2018-07-20T03:37:22.681Z,84.60
2018-07-20T03:39:50.978Z,84.50
2018-07-20T03:42:19.312Z,84.90
2018-07-20T03:44:47.601Z,85.20
2018-07-20T03:47:15.891Z,85.00
2018-07-20T03:49:44.316Z,84.80
2018-07-20T03:52:12.619Z,85.30
2018-07-20T03:54:40.869Z,85.30
2018-07-20T03:57:09.132Z,85.40
2018-07-20T03:59:37.445Z,85.30
2018-07-20T04:02:05.715Z,85.60
2018-07-20T04:04:33.968Z,85.50
2018-07-20T04:07:02.252Z,85.10
2018-07-20T04:09:30.521Z,84.10
2018-07-20T04:11:59.767Z,83.10
2018-07-20T04:14:28.033Z,82.50
2018-07-20T04:16:56.310Z,82.00
2018-07-20T04:19:24.569Z,81.10
2018-07-20T04:21:52.848Z,80.40
2018-07-20T04:24:21.108Z,80.00
2018-07-20T04:26:49.355Z,79.60
2018-07-20T04:29:17.613Z,79.50
2018-07-20T04:31:46.089Z,78.90
2018-07-20T04:34:14.359Z,78.00
2018-07-20T04:36:42.608Z,77.60
2018-07-20T04:39:13.060Z,77.80
2018-07-20T04:41:41.846Z,77.90
2018-07-20T04:44:10.097Z,77.90
2018-07-20T04:46:38.452Z,77.00
2018-07-20T04:49:06.735Z,76.50
2018-07-20T04:51:35.044Z,76.90
2018-07-20T04:56:31.785Z,77.90
2018-07-20T04:59:00.030Z,75.80
2018-07-20T05:01:28.288Z,75.40
2018-07-20T05:03:56.569Z,75.30
2018-07-20T05:06:24.824Z,75.40
2018-07-20T05:08:53.073Z,75.50
2018-07-20T05:11:21.419Z,76.00
2018-07-20T05:13:49.704Z,76.90
2018-07-20T05:16:17.956Z,77.40
2018-07-20T05:18:46.221Z,77.70
2018-07-20T05:21:14.491Z,77.90
2018-07-20T05:23:42.754Z,75.60
2018-07-20T05:26:11.049Z,74.70
2018-07-20T05:28:39.292Z,75.00
2018-07-20T05:33:35.532Z,75.10
2018-07-20T05:36:03.842Z,73.10
2018-07-20T05:38:32.100Z,73.10
2018-07-20T05:41:00.369Z,72.40
2018-07-20T05:43:28.622Z,71.40
2018-07-20T05:45:56.884Z,69.80
2018-07-20T05:48:25.508Z,70.30
2018-07-20T05:53:21.760Z,71.00
2018-07-20T05:55:50.016Z,69.10
2018-07-20T06:00:46.289Z,69.90
2018-07-20T06:03:14.547Z,71.10
2018-07-20T06:05:42.827Z,69.20
2018-07-20T06:08:11.069Z,68.80
2018-07-20T06:10:39.367Z,67.80
2018-07-20T06:13:07.637Z,68.30
2018-07-20T06:15:35.892Z,67.60
2018-07-20T06:18:04.141Z,66.60
2018-07-20T06:20:32.396Z,66.10
2018-07-20T06:23:00.653Z,65.80
2018-07-20T06:25:28.914Z,65.70
2018-07-20T06:27:57.180Z,65.70
2018-07-20T06:30:25.444Z,63.90
2018-07-20T06:32:53.741Z,64.00
2018-07-20T06:35:21.988Z,63.80
2018-07-20T06:37:50.253Z,63.40
2018-07-20T06:40:18.508Z,62.40
2018-07-20T06:42:46.772Z,62.10
2018-07-20T06:45:15.049Z,60.70
2018-07-20T06:47:43.322Z,61.30
2018-07-20T06:52:44.013Z,58.50
2018-07-20T06:55:12.322Z,57.40
2018-07-20T06:57:40.576Z,56.60
2018-07-20T07:00:09.637Z,56.60
2018-07-20T07:02:37.993Z,56.20
2018-07-20T07:05:07.712Z,55.30
2018-07-20T07:07:36.014Z,53.90
2018-07-20T07:10:04.412Z,54.00
2018-07-20T07:12:32.697Z,52.50
2018-07-20T07:15:01.018Z,53.50
2018-07-20T07:17:29.235Z,52.50
2018-07-20T07:19:57.568Z,51.00
2018-07-20T07:22:25.825Z,51.30
2018-07-20T07:24:54.070Z,50.30
2018-07-20T07:27:22.320Z,50.20
2018-07-20T07:29:50.702Z,50.30
2018-07-20T07:32:18.981Z,49.30
2018-07-20T07:34:47.440Z,49.20
2018-07-20T07:37:15.737Z,48.80
2018-07-20T07:39:43.999Z,49.00
2018-07-20T07:42:12.245Z,48.80
2018-07-20T07:44:40.518Z,48.20
2018-07-20T07:47:08.752Z,48.10
2018-07-20T07:49:36.999Z,48.10
2018-07-20T07:52:05.478Z,47.90
2018-07-20T07:54:33.731Z,48.10
2018-07-20T07:57:02.001Z,47.90
2018-07-20T07:59:30.265Z,46.80
2018-07-20T08:01:58.592Z,46.10
2018-07-20T08:04:26.872Z,46.30
2018-07-20T08:06:55.160Z,47.10
2018-07-20T08:09:23.404Z,45.60
2018-07-20T08:11:51.677Z,46.60
2018-07-20T08:14:19.944Z,45.40
2018-07-20T08:16:48.240Z,45.80
2018-07-20T08:19:16.516Z,45.70
2018-07-20T08:21:44.779Z,44.30
2018-07-20T08:24:13.044Z,42.10
2018-07-20T08:26:41.315Z,39.50
2018-07-20T08:29:09.570Z,41.40
2018-07-20T08:31:37.842Z,41.70
2018-07-20T08:34:06.156Z,41.80
2018-07-20T08:36:34.415Z,39.80
2018-07-20T08:39:02.721Z,40.20
2018-07-20T08:41:31.004Z,39.50
2018-07-20T08:43:59.264Z,40.00
2018-07-20T08:46:27.528Z,40.40
2018-07-20T08:48:55.813Z,39.80
2018-07-20T08:51:24.066Z,39.70
2018-07-20T08:53:52.358Z,40.50
2018-07-20T08:56:20.636Z,40.60
2018-07-20T08:58:48.905Z,39.90
2018-07-20T09:01:17.200Z,40.60
2018-07-20T09:03:45.453Z,42.40
2018-07-20T09:06:13.715Z,42.80
2018-07-20T09:08:41.972Z,40.10
2018-07-20T09:11:10.256Z,40.30
2018-07-20T09:13:38.612Z,39.20
2018-07-20T09:16:06.878Z,39.70
2018-07-20T09:18:35.129Z,37.80
2018-07-20T09:21:03.506Z,37.80
2018-07-20T09:23:31.757Z,40.30
2018-07-20T09:26:00.012Z,38.60
2018-07-20T09:28:28.272Z,37.60
2018-07-20T09:30:56.531Z,38.10
2018-07-20T09:33:24.796Z,38.00
2018-07-20T09:35:53.044Z,37.10
2018-07-20T09:38:21.328Z,37.40
2018-07-20T09:40:49.605Z,37.90
2018-07-20T09:43:17.882Z,37.70
2018-07-20T09:45:46.140Z,37.70
2018-07-20T09:48:14.400Z,39.00
2018-07-20T09:50:49.191Z,37.70
2018-07-20T09:53:17.445Z,38.00
2018-07-20T09:55:45.711Z,37.70
2018-07-20T09:58:13.954Z,37.30
2018-07-20T10:00:51.532Z,36.30
2018-07-20T10:03:20.809Z,36.10
2018-07-20T10:05:49.200Z,36.90
2018-07-20T10:08:18.690Z,38.10
2018-07-20T10:10:47.393Z,36.90
2018-07-20T10:13:16.068Z,36.80
2018-07-20T10:15:44.336Z,36.50
2018-07-20T10:18:12.604Z,37.80
2018-07-20T10:20:40.848Z,36.20
2018-07-20T10:23:09.109Z,36.70
2018-07-20T10:25:37.431Z,36.90
2018-07-20T10:28:05.662Z,35.80
2018-07-20T10:30:34.066Z,36.00
2018-07-20T10:33:02.284Z,36.50
2018-07-20T10:35:30.533Z,36.20
2018-07-20T10:37:58.813Z,35.90
2018-07-20T10:40:27.920Z,34.60
2018-07-20T10:42:57.856Z,34.40
2018-07-20T10:45:26.426Z,34.50
2018-07-20T10:47:54.847Z,34.60
2018-07-20T10:50:23.108Z,34.70
2018-07-20T10:52:51.353Z,34.20
2018-07-20T10:55:19.943Z,35.60
2018-07-20T10:57:48.510Z,36.20
2018-07-20T11:02:44.903Z,36.80
2018-07-20T11:05:13.208Z,36.40
2018-07-20T11:07:41.473Z,35.50
2018-07-20T11:10:09.740Z,34.20
2018-07-20T11:12:38.064Z,34.80
2018-07-20T11:15:06.574Z,34.90
2018-07-20T11:17:34.911Z,34.30
2018-07-20T11:20:03.200Z,35.40
2018-07-20T11:22:31.499Z,34.10
2018-07-20T11:24:59.763Z,35.00
2018-07-20T11:27:28.050Z,35.40
2018-07-20T11:29:56.380Z,35.80
2018-07-20T11:32:24.713Z,35.60
2018-07-20T11:34:52.963Z,35.00
2018-07-20T11:37:21.244Z,35.00
2018-07-20T11:39:49.515Z,35.70
2018-07-20T11:42:17.788Z,36.00
2018-07-20T11:44:46.041Z,35.80
2018-07-20T11:47:14.297Z,35.30
2018-07-20T11:49:42.544Z,35.70
2018-07-20T11:52:10.785Z,35.90
2018-07-20T11:54:39.085Z,35.30
2018-07-20T11:57:07.380Z,35.30
2018-07-20T11:59:35.644Z,36.00
2018-07-20T12:02:03.949Z,34.10
2018-07-20T12:04:32.216Z,34.80
2018-07-20T12:07:00.470Z,35.60
2018-07-20T12:09:28.731Z,35.80
2018-07-20T12:11:56.980Z,35.50
2018-07-20T12:14:25.246Z,35.30
2018-07-20T12:16:53.572Z,35.40
2018-07-20T12:19:21.854Z,35.20
2018-07-20T12:21:50.125Z,34.90
2018-07-20T12:24:18.377Z,34.50
2018-07-20T12:26:46.620Z,35.20
2018-07-20T12:29:14.889Z,35.60
2018-07-20T12:31:43.180Z,36.30
2018-07-20T12:34:11.449Z,35.70
2018-07-20T12:36:39.709Z,35.90
2018-07-20T12:39:09.396Z,36.10
2018-07-20T12:41:37.664Z,34.70
2018-07-20T12:44:05.919Z,35.70
2018-07-20T12:46:34.211Z,35.20
2018-07-20T12:49:02.460Z,35.80
2018-07-20T12:51:30.747Z,36.70
2018-07-20T12:53:59.013Z,36.30
2018-07-20T12:56:27.350Z,35.00
2018-07-20T12:58:55.645Z,34.90
2018-07-20T13:01:23.885Z,36.00
2018-07-20T13:03:52.222Z,34.60
2018-07-20T13:06:20.481Z,34.60
2018-07-20T13:08:48.764Z,35.20
2018-07-20T13:11:17.323Z,35.40
2018-07-20T13:13:45.590Z,35.90
2018-07-20T13:16:13.852Z,35.10
2018-07-20T13:18:42.111Z,34.40
2018-07-20T13:21:10.393Z,35.00
2018-07-20T13:23:38.681Z,34.70
2018-07-20T13:26:06.944Z,34.20
2018-07-20T13:28:35.204Z,34.60
2018-07-20T13:31:03.496Z,33.60
2018-07-20T13:33:31.767Z,33.60
2018-07-20T13:36:00.016Z,34.40
2018-07-20T13:38:28.306Z,34.20
2018-07-20T13:43:24.592Z,34.00
2018-07-20T13:45:52.849Z,33.90
2018-07-20T13:48:21.119Z,33.40
2018-07-20T13:50:49.386Z,33.10
2018-07-20T13:53:17.642Z,34.40
2018-07-20T13:55:45.918Z,33.40
2018-07-20T13:58:14.191Z,33.80
2018-07-20T14:00:42.488Z,34.20
2018-07-20T14:03:10.733Z,34.40
2018-07-20T14:05:39.011Z,34.50
2018-07-20T14:08:07.408Z,34.80
2018-07-20T14:10:35.693Z,34.40
2018-07-20T14:13:03.992Z,35.60
2018-07-20T14:15:32.247Z,35.80
2018-07-20T14:18:00.527Z,35.90
2018-07-20T14:20:28.794Z,36.60
2018-07-20T14:22:57.081Z,36.20
2018-07-20T14:25:25.347Z,36.10
2018-07-20T14:27:53.602Z,35.90
2018-07-20T14:30:21.888Z,36.30
2018-07-20T14:32:50.149Z,36.00
2018-07-20T14:35:18.460Z,36.40
2018-07-20T14:37:46.744Z,36.30
2018-07-20T14:40:15.033Z,36.30
2018-07-20T14:42:43.336Z,36.00
2018-07-20T14:45:11.636Z,36.20
2018-07-20T14:47:39.968Z,36.50
2018-07-20T14:50:08.294Z,36.70
2018-07-20T14:52:36.557Z,37.40
2018-07-20T14:55:04.873Z,37.50
2018-07-20T14:57:33.128Z,37.10
2018-07-20T15:00:01.405Z,38.10
2018-07-20T15:02:29.753Z,37.60
2018-07-20T15:04:57.945Z,37.70
2018-07-20T15:07:26.280Z,37.40
2018-07-20T15:09:54.531Z,37.80
2018-07-20T15:12:22.844Z,37.40
2018-07-20T15:14:51.064Z,38.60
2018-07-20T15:17:19.364Z,37.10
2018-07-20T15:19:47.614Z,37.70
2018-07-20T15:22:15.879Z,37.00
2018-07-20T15:24:44.145Z,36.70
2018-07-20T15:27:12.413Z,36.30
2018-07-20T15:29:40.776Z,35.90
2018-07-20T15:32:08.978Z,35.80
2018-07-20T15:34:37.241Z,34.90
2018-07-20T15:37:05.508Z,34.70
2018-07-20T15:39:33.799Z,34.80
2018-07-20T15:42:02.022Z,34.90
2018-07-20T15:44:30.281Z,35.50
2018-07-20T15:46:58.776Z,35.10
2018-07-20T15:49:26.824Z,34.40
2018-07-20T15:53:36.280Z,34.40
2018-07-20T15:55:26.475Z,34.70
2018-07-20T15:57:54.802Z,33.80
2018-07-20T16:00:23.048Z,33.00
2018-07-20T16:02:51.400Z,32.50
2018-07-20T16:05:19.695Z,31.20
2018-07-20T16:07:47.936Z,30.80
2018-07-20T16:10:16.205Z,31.20
2018-07-20T16:12:44.457Z,29.30
2018-07-20T16:15:12.724Z,28.60
2018-07-20T16:17:40.976Z,28.50
2018-07-20T16:20:09.268Z,29.10
2018-07-20T16:22:37.607Z,28.70
2018-07-20T16:25:05.997Z,28.50
2018-07-20T16:27:34.263Z,28.80
2018-07-20T16:30:02.568Z,29.00
2018-07-20T16:32:30.840Z,28.80
2018-07-20T16:34:59.096Z,28.10
2018-07-20T16:37:27.344Z,27.10
2018-07-20T16:39:55.647Z,26.60
2018-07-20T16:42:23.915Z,26.00
2018-07-20T16:44:52.188Z,26.70
2018-07-20T16:47:20.500Z,26.60
2018-07-20T16:49:48.725Z,26.60
2018-07-20T16:52:17.044Z,26.50
2018-07-20T16:54:45.296Z,26.60
2018-07-20T16:57:13.581Z,27.00
2018-07-20T16:59:41.824Z,27.60
2018-07-20T17:02:10.115Z,27.60
2018-07-20T17:04:38.381Z,27.90
2018-07-20T17:07:06.639Z,28.30
2018-07-20T17:09:34.889Z,27.40
2018-07-20T17:12:03.216Z,27.80
2018-07-20T17:14:31.459Z,28.50
2018-07-20T17:16:59.756Z,28.90
2018-07-20T17:19:28.023Z,29.50
2018-07-20T17:21:56.294Z,30.70
2018-07-20T17:24:24.549Z,31.50
2018-07-20T17:26:52.804Z,31.60
2018-07-20T17:29:21.048Z,31.90
2018-07-20T17:31:49.303Z,32.70
2018-07-20T17:34:17.564Z,33.10
2018-07-20T17:36:45.826Z,34.20
2018-07-20T17:39:14.161Z,35.00
2018-07-20T17:41:42.500Z,35.50
2018-07-20T17:44:10.943Z,36.00
2018-07-20T17:46:39.259Z,37.30
2018-07-20T17:49:07.525Z,37.30
2018-07-20T17:51:35.809Z,37.90
2018-07-20T17:54:04.068Z,38.10
2018-07-20T17:56:32.340Z,38.30
2018-07-20T17:59:00.608Z,39.20
2018-07-20T18:01:28.856Z,39.10
2018-07-20T18:03:57.120Z,39.40
2018-07-20T18:06:25.377Z,39.40
2018-07-20T18:08:53.648Z,39.40
2018-07-20T18:11:22.224Z,40.00
2018-07-20T18:13:50.473Z,40.30
2018-07-20T18:16:18.771Z,40.40
2018-07-20T18:18:47.042Z,40.50
2018-07-20T18:21:15.287Z,40.40
2018-07-20T18:23:43.548Z,40.60
2018-07-20T18:26:11.808Z,41.20
2018-07-20T18:28:40.061Z,40.60
2018-07-20T18:31:08.319Z,40.90
2018-07-20T18:33:36.658Z,40.90
2018-07-20T18:36:05.033Z,41.10
2018-07-20T18:38:33.284Z,41.40
2018-07-20T18:41:01.672Z,41.60
2018-07-20T18:43:29.933Z,41.70
2018-07-20T18:45:58.182Z,42.20
2018-07-20T18:48:26.670Z,42.90
2018-07-20T18:50:54.934Z,42.30
2018-07-20T18:53:23.196Z,42.60
2018-07-20T18:55:51.441Z,42.90
2018-07-20T18:58:19.701Z,42.80
2018-07-20T19:00:47.978Z,43.80
2018-07-20T19:03:16.249Z,42.90
2018-07-20T19:05:44.518Z,42.80
2018-07-20T19:08:12.802Z,43.00
2018-07-20T19:10:41.082Z,43.20
2018-07-20T19:13:09.344Z,43.60
2018-07-20T19:15:37.596Z,43.30
2018-07-20T19:20:33.859Z,44.00
2018-07-20T19:23:02.132Z,43.70
2018-07-20T19:25:30.376Z,44.80
2018-07-20T19:27:58.628Z,45.00
2018-07-20T19:30:26.893Z,44.50
2018-07-20T19:32:55.141Z,45.20
2018-07-20T19:35:23.412Z,45.50
2018-07-20T19:37:51.682Z,44.80
2018-07-20T19:40:19.963Z,45.70
2018-07-20T19:42:48.178Z,46.10
2018-07-20T19:45:16.457Z,48.20
2018-07-20T19:47:44.720Z,49.20
2018-07-20T19:50:12.984Z,47.60
2018-07-20T19:52:41.248Z,47.00
2018-07-20T19:55:09.530Z,46.70
2018-07-20T19:57:37.897Z,48.80
2018-07-20T20:00:08.031Z,50.10
2018-07-20T20:02:36.324Z,48.80
2018-07-20T20:05:04.652Z,48.30
2018-07-20T20:10:01.680Z,49.10
2018-07-20T20:12:29.941Z,49.50
2018-07-20T20:14:58.183Z,50.00
2018-07-20T20:17:26.466Z,50.30
2018-07-20T20:19:54.733Z,51.10
2018-07-20T20:22:23.008Z,50.90
2018-07-20T20:27:19.307Z,51.80
2018-07-20T20:29:47.732Z,52.10
2018-07-20T20:34:44.002Z,53.10
2018-07-20T20:37:12.253Z,53.40
2018-07-20T20:39:40.553Z,53.60
2018-07-20T20:42:08.825Z,54.20
2018-07-20T20:44:37.109Z,54.20
2018-07-20T20:47:05.445Z,55.20
2018-07-20T20:49:33.708Z,56.00
2018-07-20T20:52:01.972Z,58.60
2018-07-20T20:54:30.240Z,66.60
2018-07-20T20:56:58.512Z,74.20
2018-07-20T20:59:27.648Z,78.80
2018-07-20T21:01:55.944Z,69.90
2018-07-20T21:04:24.232Z,78.90
2018-07-20T21:06:52.476Z,82.10
2018-07-20T21:09:20.741Z,81.90
2018-07-20T21:11:49.058Z,82.20
2018-07-20T21:14:17.291Z,84.50
2018-07-20T21:16:46.785Z,88.70
2018-07-20T21:19:15.067Z,90.20
2018-07-20T21:21:43.328Z,90.30
2018-07-20T21:24:11.588Z,89.70
2018-07-20T21:26:39.856Z,88.60
2018-07-20T21:29:08.131Z,89.30
2018-07-20T21:31:36.391Z,90.10
2018-07-20T21:34:04.649Z,91.00
2018-07-20T21:36:32.903Z,91.00
2018-07-20T21:39:01.319Z,92.30
2018-07-20T21:41:29.597Z,93.10
2018-07-20T21:43:57.869Z,93.20
2018-07-20T21:46:26.136Z,92.50
2018-07-20T21:48:54.390Z,92.70
2018-07-20T21:51:22.666Z,93.50
2018-07-20T21:53:50.927Z,92.90
2018-07-20T21:56:19.209Z,93.40
2018-07-20T21:58:47.462Z,93.00
2018-07-20T22:01:15.720Z,93.20
2018-07-20T22:03:44.032Z,93.30
2018-07-20T22:06:12.278Z,93.50
2018-07-20T22:08:40.553Z,92.90
2018-07-20T22:11:08.838Z,93.40
2018-07-20T22:13:37.118Z,94.00
2018-07-20T22:16:05.557Z,94.10
2018-07-20T22:18:33.845Z,93.50
2018-07-20T22:21:02.116Z,94.10
2018-07-20T22:23:30.401Z,94.30
2018-07-20T22:25:58.681Z,94.60
2018-07-20T22:28:26.956Z,95.10
2018-07-20T22:30:55.293Z,95.10
2018-07-20T22:33:23.580Z,94.20
2018-07-20T22:35:51.840Z,94.50
2018-07-20T22:38:20.116Z,94.90
2018-07-20T22:40:48.471Z,94.10
2018-07-20T22:43:16.765Z,93.40
2018-07-20T22:45:45.016Z,94.40
2018-07-20T22:48:13.291Z,94.40
2018-07-20T22:50:41.554Z,94.60
2018-07-20T22:53:09.808Z,94.50
2018-07-20T22:55:38.067Z,94.30
2018-07-20T22:58:06.320Z,94.20
2018-07-20T23:00:34.627Z,94.80
2018-07-20T23:03:03.026Z,94.50
2018-07-20T23:05:31.294Z,94.50
2018-07-20T23:07:59.547Z,95.20
2018-07-20T23:10:27.824Z,95.20
2018-07-20T23:12:56.081Z,95.50
2018-07-20T23:15:24.369Z,94.10
2018-07-20T23:17:52.628Z,94.80
2018-07-20T23:20:20.962Z,95.20
2018-07-20T23:22:49.296Z,94.80
2018-07-20T23:25:17.612Z,95.20
2018-07-20T23:27:45.867Z,94.40
2018-07-20T23:30:14.101Z,94.50
2018-07-20T23:32:42.386Z,95.00
2018-07-20T23:35:10.644Z,95.00
2018-07-20T23:37:38.955Z,94.90
2018-07-20T23:40:07.228Z,94.90
2018-07-20T23:42:35.486Z,94.70
2018-07-20T23:45:03.787Z,94.70
2018-07-20T23:47:32.043Z,94.60
2018-07-20T23:50:00.301Z,94.60
2018-07-20T23:52:28.750Z,95.20
2018-07-20T23:54:57.012Z,95.20
2018-07-20T23:59:53.266Z,95.00
